Rollin, Michigan
Current Conditions -  °F | °C
As of 7:53 PM on Wednesday 17 Dec 2014 (Local Time) from KADG Reporting Station
Overcast Overcast  
Wind Chill: 19°   Ceiling: 3100
Heat Index: 29°   Visibility: 10mi
Dew Point: 18°   Wind: 13mph
Humidity: 64%   Direction: 310°NW
Pressure: 30.17"   Gusts: NA
Location:  41.91°N, 84.32°W
Report Text: KADG 180053Z AUTO 31011KT 10SM OVC031 M02/M08 A3017 RMK AO2 SLP228 T10171078
Loading
Personal Weather Stations






























Interactive Weather Map New forecast layout! Learn more

10-Day Weather Forecast

Advertisements
Track Severe Weather on mobile